createdAt,value
2017-02-08T00:00:19.448Z,929.01
2017-02-08T00:00:47.740Z,929
2017-02-08T00:01:15.967Z,928.95
2017-02-08T00:01:44.196Z,928.98
2017-02-08T00:02:12.451Z,928.96
2017-02-08T00:02:40.520Z,928.94
2017-02-08T00:03:08.574Z,929.01
2017-02-08T00:03:36.627Z,929
2017-02-08T00:04:04.786Z,929.03
2017-02-08T00:04:32.885Z,929.03
2017-02-08T00:05:00.959Z,929.04
2017-02-08T00:05:29.241Z,929.06
2017-02-08T00:05:57.330Z,929.13
2017-02-08T00:06:25.441Z,929.15
2017-02-08T00:06:53.816Z,929.14
2017-02-08T00:07:22.067Z,929.16
2017-02-08T00:07:50.191Z,929.18
2017-02-08T00:08:18.322Z,929.14
2017-02-08T00:08:46.579Z,929.08
2017-02-08T00:09:14.789Z,929.1
2017-02-08T00:09:42.834Z,929.07
2017-02-08T00:10:10.787Z,929.03
2017-02-08T00:10:38.937Z,929.09
2017-02-08T00:11:07.075Z,929.08
2017-02-08T00:11:35.211Z,929.11
2017-02-08T00:12:03.393Z,929.1
2017-02-08T00:12:31.543Z,929.08
2017-02-08T00:12:59.859Z,929.09
2017-02-08T00:13:28.153Z,929.14
2017-02-08T00:13:56.210Z,929.16
2017-02-08T00:14:24.385Z,929.19
2017-02-08T00:14:52.638Z,929.22
2017-02-08T00:15:20.942Z,929.19
2017-02-08T00:15:49.225Z,929.2
2017-02-08T00:16:17.420Z,929.25
2017-02-08T00:16:45.561Z,929.26
2017-02-08T00:17:13.776Z,929.21
2017-02-08T00:17:41.766Z,929.25
2017-02-08T00:18:09.940Z,929.21
2017-02-08T00:18:38.169Z,929.23
2017-02-08T00:19:06.477Z,929.29
2017-02-08T00:19:34.615Z,929.31
2017-02-08T00:20:02.710Z,929.3
2017-02-08T00:20:30.803Z,929.28
2017-02-08T00:20:58.900Z,929.3
2017-02-08T00:21:27.095Z,929.35
2017-02-08T00:21:55.365Z,929.31
2017-02-08T00:22:23.361Z,929.3
2017-02-08T00:22:51.236Z,929.33
2017-02-08T00:23:19.491Z,929.4
2017-02-08T00:23:47.811Z,929.36
2017-02-08T00:24:15.986Z,929.34
2017-02-08T00:24:44.075Z,929.34
2017-02-08T00:25:12.368Z,929.41
2017-02-08T00:25:40.544Z,929.36
2017-02-08T00:26:08.725Z,929.33
2017-02-08T00:26:36.862Z,929.41
2017-02-08T00:27:05.043Z,929.32
2017-02-08T00:27:33.339Z,929.33
2017-02-08T00:28:01.428Z,929.31
2017-02-08T00:28:29.571Z,929.36
2017-02-08T00:28:57.739Z,929.36
2017-02-08T00:29:26.067Z,929.32
2017-02-08T00:29:54.343Z,929.34
2017-02-08T00:30:22.535Z,929.34
2017-02-08T00:30:50.878Z,929.43
2017-02-08T00:31:18.869Z,929.38
2017-02-08T00:31:46.814Z,929.37
2017-02-08T00:32:15.071Z,929.44
2017-02-08T00:32:43.314Z,929.48
2017-02-08T00:33:11.445Z,929.49
2017-02-08T00:33:39.695Z,929.53
2017-02-08T00:34:07.891Z,929.48
2017-02-08T00:34:36.052Z,929.4
2017-02-08T00:35:04.320Z,929.37
2017-02-08T00:35:32.660Z,929.39
2017-02-08T00:36:01.005Z,929.37
2017-02-08T00:36:29.207Z,929.37
2017-02-08T00:36:57.471Z,929.38
2017-02-08T00:37:25.818Z,929.38
2017-02-08T00:37:54.029Z,929.4
2017-02-08T00:38:22.209Z,929.41
2017-02-08T00:38:50.481Z,929.44
2017-02-08T00:39:18.693Z,929.49
2017-02-08T00:39:46.816Z,929.48
2017-02-08T00:40:14.783Z,929.5
2017-02-08T00:40:42.972Z,929.52
2017-02-08T00:41:11.012Z,929.56
2017-02-08T00:41:39.175Z,929.57
2017-02-08T00:42:07.467Z,929.57
2017-02-08T00:42:35.594Z,929.58
2017-02-08T00:43:03.801Z,929.6
2017-02-08T00:43:31.714Z,929.59
2017-02-08T00:43:59.963Z,929.66
2017-02-08T00:44:28.286Z,929.62
2017-02-08T00:44:56.410Z,929.57
2017-02-08T00:45:24.555Z,929.63
2017-02-08T00:45:52.711Z,929.61
2017-02-08T00:46:20.951Z,929.6
2017-02-08T00:46:49.198Z,929.65
2017-02-08T00:47:17.422Z,929.65
2017-02-08T00:47:45.615Z,929.68
2017-02-08T00:48:13.731Z,929.63
2017-02-08T00:48:42.045Z,929.69
2017-02-08T00:49:10.342Z,929.67
2017-02-08T00:49:38.497Z,929.63
2017-02-08T00:50:06.711Z,929.63
2017-02-08T00:50:34.845Z,929.65
2017-02-08T00:51:03.111Z,929.63
2017-02-08T00:51:31.354Z,929.57
2017-02-08T00:51:59.463Z,929.59
2017-02-08T00:52:27.783Z,929.57
2017-02-08T00:52:56.012Z,929.59
2017-02-08T00:53:24.316Z,929.58
2017-02-08T00:53:52.360Z,929.55
2017-02-08T00:54:20.469Z,929.6
2017-02-08T00:54:48.655Z,929.59
2017-02-08T00:55:16.850Z,929.56
2017-02-08T00:55:45.162Z,929.57
2017-02-08T00:56:13.269Z,929.58
2017-02-08T00:56:41.171Z,929.57
2017-02-08T00:57:09.411Z,929.57
2017-02-08T00:57:37.586Z,929.62
2017-02-08T00:58:05.825Z,929.58
2017-02-08T00:58:33.935Z,929.53
2017-02-08T00:59:02.007Z,929.62
2017-02-08T00:59:30.149Z,929.57
2017-02-08T00:59:58.372Z,929.57
2017-02-08T01:00:26.567Z,929.59
2017-02-08T01:00:54.878Z,929.62
2017-02-08T01:01:23.078Z,929.6
2017-02-08T01:01:51.327Z,929.65
2017-02-08T01:02:19.826Z,929.62
2017-02-08T01:02:47.918Z,929.64
2017-02-08T01:03:16.242Z,929.63
2017-02-08T01:03:44.443Z,929.63
2017-02-08T01:04:12.444Z,929.6
2017-02-08T01:04:40.607Z,929.63
2017-02-08T01:05:08.826Z,929.6
2017-02-08T01:05:36.896Z,929.63
2017-02-08T01:06:05.106Z,929.61
2017-02-08T01:06:33.342Z,929.6
2017-02-08T01:07:01.621Z,929.67
2017-02-08T01:07:29.802Z,929.64
2017-02-08T01:07:58.082Z,929.65
2017-02-08T01:08:26.198Z,929.65
2017-02-08T01:08:54.473Z,929.68
2017-02-08T01:09:22.664Z,929.62
2017-02-08T01:09:50.863Z,929.68
2017-02-08T01:10:19.039Z,929.7
2017-02-08T01:10:47.216Z,929.65
2017-02-08T01:11:15.547Z,929.69
2017-02-08T01:11:43.463Z,929.67
2017-02-08T01:12:11.673Z,929.62
2017-02-08T01:12:39.895Z,929.68
2017-02-08T01:13:08.091Z,929.66
2017-02-08T01:13:36.198Z,929.65
2017-02-08T01:14:04.481Z,929.65
2017-02-08T01:14:32.586Z,929.65
2017-02-08T01:15:00.954Z,929.65
2017-02-08T01:15:29.290Z,929.63
2017-02-08T01:15:57.401Z,929.63
2017-02-08T01:16:25.460Z,929.63
2017-02-08T01:16:53.687Z,929.62
2017-02-08T01:17:21.954Z,929.62
2017-02-08T01:17:50.268Z,929.62
2017-02-08T01:18:18.425Z,929.66
2017-02-08T01:18:46.740Z,929.61
2017-02-08T01:19:14.909Z,929.62
2017-02-08T01:19:43.238Z,929.62
2017-02-08T01:20:11.483Z,929.69
2017-02-08T01:20:39.643Z,929.65
2017-02-08T01:21:07.838Z,929.67
2017-02-08T01:21:35.986Z,929.66
2017-02-08T01:22:04.090Z,929.65
2017-02-08T01:22:32.307Z,929.63
2017-02-08T01:23:00.562Z,929.67
2017-02-08T01:23:28.714Z,929.66
2017-02-08T01:23:56.924Z,929.65
2017-02-08T01:24:25.113Z,929.66
2017-02-08T01:24:53.442Z,929.68
2017-02-08T01:25:21.724Z,929.7
2017-02-08T01:25:50.073Z,929.67
2017-02-08T01:26:18.290Z,929.71
2017-02-08T01:26:46.484Z,929.72
2017-02-08T01:27:14.674Z,929.73
2017-02-08T01:27:42.969Z,929.71
2017-02-08T01:28:11.411Z,929.83
2017-02-08T01:28:39.851Z,929.76
2017-02-08T01:29:08.151Z,929.81
2017-02-08T01:29:36.480Z,929.78
2017-02-08T01:30:04.787Z,929.77
2017-02-08T01:30:32.971Z,929.83
2017-02-08T01:31:01.214Z,929.79
2017-02-08T01:31:29.391Z,929.8
2017-02-08T01:31:57.560Z,929.76
2017-02-08T01:32:25.611Z,929.78
2017-02-08T01:32:53.720Z,929.74
2017-02-08T01:33:21.901Z,929.69
2017-02-08T01:33:50.090Z,929.73
2017-02-08T01:34:18.269Z,929.69
2017-02-08T01:34:46.422Z,929.7
2017-02-08T01:35:14.620Z,929.72
2017-02-08T01:35:42.749Z,929.7
2017-02-08T01:36:10.970Z,929.68
2017-02-08T01:36:39.209Z,929.66
2017-02-08T01:37:07.472Z,929.61
2017-02-08T01:37:35.781Z,929.68
2017-02-08T01:38:04.061Z,929.64
2017-02-08T01:38:32.189Z,929.62
2017-02-08T01:39:00.341Z,929.65
2017-02-08T01:39:28.474Z,929.68
2017-02-08T01:39:56.590Z,929.7
2017-02-08T01:40:24.735Z,929.71
2017-02-08T01:40:52.891Z,929.75
2017-02-08T01:41:21.256Z,929.67
2017-02-08T01:41:49.520Z,929.72
2017-02-08T01:42:17.813Z,929.74
2017-02-08T01:42:46.190Z,929.86
2017-02-08T01:43:14.500Z,929.76
2017-02-08T01:43:42.759Z,929.75
2017-02-08T01:44:11.030Z,929.78
2017-02-08T01:44:39.298Z,929.83
2017-02-08T01:45:07.487Z,929.81
2017-02-08T01:45:35.778Z,929.83
2017-02-08T01:46:03.970Z,929.88
2017-02-08T01:46:32.162Z,929.85
2017-02-08T01:47:00.336Z,929.86
2017-02-08T01:47:28.578Z,929.85
2017-02-08T01:47:56.780Z,929.84
2017-02-08T01:48:25.079Z,929.87
2017-02-08T01:48:53.271Z,929.85
2017-02-08T01:49:22.221Z,929.92
2017-02-08T01:49:50.264Z,929.93
2017-02-08T01:50:18.414Z,929.88
2017-02-08T01:50:46.744Z,929.86
2017-02-08T01:51:14.934Z,929.87
2017-02-08T01:51:43.097Z,929.8
2017-02-08T01:52:11.421Z,929.83
2017-02-08T01:52:39.748Z,929.84
2017-02-08T01:53:07.913Z,929.83
2017-02-08T01:53:36.159Z,929.87
2017-02-08T01:54:04.381Z,929.86
2017-02-08T01:54:32.501Z,929.86
2017-02-08T01:55:00.483Z,929.84
2017-02-08T01:55:28.594Z,929.86
2017-02-08T01:55:56.756Z,929.8
2017-02-08T01:56:24.936Z,929.83
2017-02-08T01:56:53.112Z,929.87
2017-02-08T01:57:21.372Z,929.86
2017-02-08T01:57:49.549Z,929.87
2017-02-08T01:58:17.826Z,929.86
2017-02-08T01:58:45.997Z,929.87
2017-02-08T01:59:14.098Z,929.85
2017-02-08T01:59:42.382Z,929.88
2017-02-08T02:00:10.706Z,929.86
2017-02-08T02:00:38.999Z,929.91
2017-02-08T02:01:07.255Z,929.89
2017-02-08T02:01:35.454Z,929.89
2017-02-08T02:02:03.631Z,929.84
2017-02-08T02:02:31.909Z,929.89
2017-02-08T02:03:00.152Z,929.84
2017-02-08T02:03:28.403Z,929.88
2017-02-08T02:03:56.583Z,929.86
2017-02-08T02:04:24.750Z,929.83
2017-02-08T02:04:52.990Z,929.81
2017-02-08T02:05:21.137Z,929.8
2017-02-08T02:05:49.278Z,929.88
2017-02-08T02:06:17.275Z,929.85
2017-02-08T02:06:45.477Z,929.82
2017-02-08T02:07:13.601Z,929.83
2017-02-08T02:07:41.887Z,929.86
2017-02-08T02:08:10.146Z,929.82
2017-02-08T02:08:37.985Z,929.84
2017-02-08T02:09:06.066Z,929.88
2017-02-08T02:09:34.153Z,929.81
2017-02-08T02:10:02.203Z,929.85
2017-02-08T02:10:30.474Z,929.88
2017-02-08T02:10:58.545Z,929.85
2017-02-08T02:11:26.871Z,929.81
2017-02-08T02:11:54.971Z,929.8
2017-02-08T02:12:23.140Z,929.8
2017-02-08T02:12:51.514Z,929.85
2017-02-08T02:13:19.700Z,929.78
2017-02-08T02:13:47.917Z,929.77
2017-02-08T02:14:16.234Z,929.75
2017-02-08T02:14:44.544Z,929.7
2017-02-08T02:15:12.652Z,929.72
2017-02-08T02:15:40.721Z,929.76
2017-02-08T02:16:08.896Z,929.63
2017-02-08T02:16:37.034Z,929.76
2017-02-08T02:17:05.283Z,929.74
2017-02-08T02:17:33.438Z,929.64
2017-02-08T02:18:01.594Z,929.78
2017-02-08T02:18:29.698Z,929.72
2017-02-08T02:18:57.985Z,929.69
2017-02-08T02:19:26.195Z,929.71
2017-02-08T02:19:54.366Z,929.71
2017-02-08T02:20:22.701Z,929.76
2017-02-08T02:20:50.916Z,929.75
2017-02-08T02:21:19.092Z,929.68
2017-02-08T02:21:47.214Z,929.73
2017-02-08T02:22:15.373Z,929.69
2017-02-08T02:22:43.507Z,929.65
2017-02-08T02:23:11.860Z,929.64
2017-02-08T02:23:40.142Z,929.69
2017-02-08T02:24:08.408Z,929.66
2017-02-08T02:24:36.494Z,929.65
2017-02-08T02:25:04.596Z,929.64
2017-02-08T02:25:32.684Z,929.59
2017-02-08T02:26:00.837Z,929.57
2017-02-08T02:26:28.993Z,929.57
2017-02-08T02:26:57.258Z,929.56
2017-02-08T02:27:25.443Z,929.52
2017-02-08T02:27:53.408Z,929.58
2017-02-08T02:28:21.659Z,929.56
2017-02-08T02:28:49.845Z,929.55
2017-02-08T02:29:17.936Z,929.62
2017-02-08T02:29:46.104Z,929.48
2017-02-08T02:30:14.272Z,929.59
2017-02-08T02:30:42.511Z,929.6
2017-02-08T02:31:10.706Z,929.59
2017-02-08T02:31:38.896Z,929.56
2017-02-08T02:32:06.953Z,929.58
2017-02-08T02:32:34.917Z,929.57
2017-02-08T02:33:03.218Z,929.6
2017-02-08T02:33:31.214Z,929.59
2017-02-08T02:34:00.146Z,929.53
2017-02-08T02:34:28.327Z,929.52
2017-02-08T02:34:56.583Z,929.6
2017-02-08T02:35:24.761Z,929.6
2017-02-08T02:35:52.811Z,929.61
2017-02-08T02:36:21.027Z,929.58
2017-02-08T02:36:49.202Z,929.61
2017-02-08T02:37:17.379Z,929.66
2017-02-08T02:37:45.614Z,929.65
2017-02-08T02:38:13.683Z,929.6
2017-02-08T02:38:41.826Z,929.61
2017-02-08T02:39:10.000Z,929.64
2017-02-08T02:39:38.332Z,929.59
2017-02-08T02:40:06.478Z,929.6
2017-02-08T02:40:34.747Z,929.56
2017-02-08T02:41:02.871Z,929.59
2017-02-08T02:41:31.123Z,929.6
2017-02-08T02:41:59.251Z,929.57
2017-02-08T02:42:27.448Z,929.61
2017-02-08T02:42:55.707Z,929.58
2017-02-08T02:43:23.863Z,929.59
2017-02-08T02:43:51.934Z,929.62
2017-02-08T02:44:20.209Z,929.6
2017-02-08T02:44:48.386Z,929.63
2017-02-08T02:45:16.580Z,929.64
2017-02-08T02:45:44.773Z,929.64
2017-02-08T02:46:12.968Z,929.66
2017-02-08T02:46:41.143Z,929.69
2017-02-08T02:47:09.415Z,929.64
2017-02-08T02:47:37.746Z,929.62
2017-02-08T02:48:05.899Z,929.61
2017-02-08T02:48:34.146Z,929.66
2017-02-08T02:49:02.327Z,929.61
2017-02-08T02:49:30.535Z,929.6
2017-02-08T02:49:58.814Z,929.58
2017-02-08T02:50:26.933Z,929.55
2017-02-08T02:50:54.991Z,929.54
2017-02-08T02:51:23.145Z,929.55
2017-02-08T02:51:51.323Z,929.51
2017-02-08T02:52:19.585Z,929.5
2017-02-08T02:52:47.860Z,929.54
2017-02-08T02:53:16.035Z,929.55
2017-02-08T02:53:44.272Z,929.53
2017-02-08T02:54:12.240Z,929.5
2017-02-08T02:54:40.415Z,929.48
2017-02-08T02:55:08.791Z,929.48
2017-02-08T02:55:36.930Z,929.5
2017-02-08T02:56:05.112Z,929.5
2017-02-08T02:56:33.370Z,929.44
2017-02-08T02:57:01.560Z,929.51
2017-02-08T02:57:29.819Z,929.44
2017-02-08T02:57:58.025Z,929.44
2017-02-08T02:58:26.314Z,929.42
2017-02-08T02:58:54.416Z,929.44
2017-02-08T02:59:22.609Z,929.41
2017-02-08T02:59:50.762Z,929.4
2017-02-08T03:00:19.159Z,929.41
2017-02-08T03:00:47.298Z,929.42
2017-02-08T03:01:15.600Z,929.35
2017-02-08T03:01:43.621Z,929.37
2017-02-08T03:02:11.880Z,929.35
2017-02-08T03:02:40.086Z,929.36
2017-02-08T03:03:08.512Z,929.33
2017-02-08T03:03:36.671Z,929.36
2017-02-08T03:04:04.989Z,929.37
2017-02-08T03:04:33.258Z,929.33
2017-02-08T03:05:01.395Z,929.35
2017-02-08T03:05:29.583Z,929.34
2017-02-08T03:05:57.741Z,929.34
2017-02-08T03:06:25.779Z,929.36
2017-02-08T03:06:54.467Z,929.34
2017-02-08T03:07:22.772Z,929.37
2017-02-08T03:07:50.883Z,929.35
2017-02-08T03:08:19.245Z,929.32
2017-02-08T03:08:47.388Z,929.35
2017-02-08T03:09:15.668Z,929.3
2017-02-08T03:09:44.033Z,929.34
2017-02-08T03:10:12.310Z,929.24
2017-02-08T03:10:40.410Z,929.28
2017-02-08T03:11:08.610Z,929.23
2017-02-08T03:11:36.886Z,929.22
2017-02-08T03:12:05.253Z,929.23
2017-02-08T03:12:33.552Z,929.22
2017-02-08T03:13:01.785Z,929.22
2017-02-08T03:13:30.195Z,929.22
2017-02-08T03:13:58.414Z,929.19
2017-02-08T03:14:26.574Z,929.2
2017-02-08T03:14:54.817Z,929.22
2017-02-08T03:15:22.965Z,929.21
2017-02-08T03:15:51.252Z,929.18
2017-02-08T03:16:19.527Z,929.18
2017-02-08T03:16:47.788Z,929.12
2017-02-08T03:17:16.072Z,929.13
2017-02-08T03:17:44.360Z,929.13
2017-02-08T03:18:12.591Z,929.15
2017-02-08T03:18:40.787Z,929.11
2017-02-08T03:19:08.853Z,929.11
2017-02-08T03:19:37.000Z,929.12
2017-02-08T03:20:05.088Z,929.07
2017-02-08T03:20:33.160Z,929.11
2017-02-08T03:21:01.423Z,929.16
2017-02-08T03:21:29.650Z,929.08
2017-02-08T03:21:57.825Z,929.11
2017-02-08T03:22:25.944Z,929.07
2017-02-08T03:22:54.182Z,929.08
2017-02-08T03:23:22.448Z,929.07
2017-02-08T03:23:50.615Z,929.05
2017-02-08T03:24:18.807Z,929.06
2017-02-08T03:24:46.897Z,929.09
2017-02-08T03:25:15.074Z,929.1
2017-02-08T03:25:43.310Z,929.12
2017-02-08T03:26:11.576Z,929.1
2017-02-08T03:26:39.729Z,929.09
2017-02-08T03:27:07.889Z,929.1
2017-02-08T03:27:36.000Z,929.11
2017-02-08T03:28:03.988Z,929.14
2017-02-08T03:28:32.252Z,929.15
2017-02-08T03:29:00.518Z,929.15
2017-02-08T03:29:28.671Z,929.18
2017-02-08T03:29:56.830Z,929.16
2017-02-08T03:30:24.977Z,929.2
2017-02-08T03:30:53.074Z,929.15
2017-02-08T03:31:21.230Z,929.15
2017-02-08T03:31:49.473Z,929.12
2017-02-08T03:32:17.685Z,929.12
2017-02-08T03:32:45.942Z,929.14
2017-02-08T03:33:14.106Z,929.12
2017-02-08T03:33:42.328Z,929.15
2017-02-08T03:34:10.556Z,929.14
2017-02-08T03:34:38.700Z,929.16
2017-02-08T03:35:06.879Z,929.15
2017-02-08T03:35:35.041Z,929.17
2017-02-08T03:36:03.203Z,929.12
2017-02-08T03:36:31.352Z,929.14
2017-02-08T03:36:59.471Z,929.13
2017-02-08T03:37:27.606Z,929.16
2017-02-08T03:37:55.793Z,929.13
2017-02-08T03:38:23.895Z,929.11
2017-02-08T03:38:52.081Z,929.1
2017-02-08T03:39:20.252Z,929.12
2017-02-08T03:39:48.134Z,929.1
2017-02-08T03:40:16.415Z,929.11
2017-02-08T03:40:44.645Z,929.07
2017-02-08T03:41:12.728Z,929.07
2017-02-08T03:41:40.849Z,929.02
2017-02-08T03:42:08.949Z,929.02
2017-02-08T03:42:37.141Z,928.99
2017-02-08T03:43:05.327Z,929
2017-02-08T03:43:33.530Z,929.02
2017-02-08T03:44:01.799Z,929.06
2017-02-08T03:44:30.082Z,929.01
2017-02-08T03:44:58.377Z,929.02
2017-02-08T03:45:26.690Z,928.99
2017-02-08T03:45:54.959Z,928.98
2017-02-08T03:46:22.947Z,928.94
2017-02-08T03:46:51.234Z,929.02
2017-02-08T03:47:19.320Z,928.95
2017-02-08T03:47:47.415Z,928.94
2017-02-08T03:48:15.387Z,928.91
2017-02-08T03:48:43.455Z,928.93
2017-02-08T03:49:11.681Z,928.87
2017-02-08T03:49:39.722Z,928.92
2017-02-08T03:50:07.969Z,928.88
2017-02-08T03:50:36.101Z,928.86
2017-02-08T03:51:04.089Z,928.87
2017-02-08T03:51:32.210Z,928.82
2017-02-08T03:52:00.438Z,928.84
2017-02-08T03:52:28.603Z,928.8
2017-02-08T03:52:56.747Z,928.78
2017-02-08T03:53:24.998Z,928.8
2017-02-08T03:53:53.135Z,928.77
2017-02-08T03:54:21.351Z,928.77
2017-02-08T03:54:49.552Z,928.8
2017-02-08T03:55:17.725Z,928.79
2017-02-08T03:55:45.836Z,928.75
2017-02-08T03:56:14.044Z,928.75
2017-02-08T03:56:42.235Z,928.75
2017-02-08T03:57:10.465Z,928.78
2017-02-08T03:57:38.584Z,928.77
2017-02-08T03:58:06.684Z,928.75
2017-02-08T03:58:34.803Z,928.75
2017-02-08T03:59:03.123Z,928.78
2017-02-08T03:59:31.392Z,928.73
2017-02-08T03:59:59.585Z,928.74
2017-02-08T04:00:27.672Z,928.69
2017-02-08T04:00:55.851Z,928.72
2017-02-08T04:01:24.133Z,928.73
2017-02-08T04:01:52.284Z,928.73
2017-02-08T04:02:20.446Z,928.7
2017-02-08T04:02:48.681Z,928.71
2017-02-08T04:03:16.870Z,928.69
2017-02-08T04:03:45.135Z,928.72
2017-02-08T04:04:13.371Z,928.71
2017-02-08T04:04:41.650Z,928.68
2017-02-08T04:05:09.889Z,928.69
2017-02-08T04:05:38.139Z,928.65
2017-02-08T04:06:06.489Z,928.67
2017-02-08T04:06:34.759Z,928.68
2017-02-08T04:07:03.039Z,928.7
2017-02-08T04:07:31.219Z,928.71
2017-02-08T04:07:59.384Z,928.7
2017-02-08T04:08:27.559Z,928.71
2017-02-08T04:08:56.031Z,928.69
2017-02-08T04:09:24.090Z,928.69
2017-02-08T04:09:52.135Z,928.71
2017-02-08T04:10:20.186Z,928.71
2017-02-08T04:10:48.491Z,928.72
2017-02-08T04:11:16.581Z,928.74
2017-02-08T04:11:44.749Z,928.72
2017-02-08T04:12:12.781Z,928.74
2017-02-08T04:12:41.095Z,928.73
2017-02-08T04:13:09.364Z,928.71
2017-02-08T04:13:37.603Z,928.71
2017-02-08T04:14:06.081Z,928.67
2017-02-08T04:14:34.271Z,928.7
2017-02-08T04:15:02.552Z,928.66
2017-02-08T04:15:30.651Z,928.66
2017-02-08T04:15:58.906Z,928.62
2017-02-08T04:16:27.182Z,928.65
2017-02-08T04:16:55.245Z,928.6
2017-02-08T04:17:23.587Z,928.56
2017-02-08T04:17:51.765Z,928.54
2017-02-08T04:18:19.928Z,928.55
2017-02-08T04:18:48.186Z,928.6
2017-02-08T04:19:16.458Z,928.53
2017-02-08T04:19:44.656Z,928.53
2017-02-08T04:20:12.923Z,928.51
2017-02-08T04:20:41.190Z,928.53
2017-02-08T04:21:09.436Z,928.54
2017-02-08T04:21:37.726Z,928.5
2017-02-08T04:22:05.875Z,928.52
2017-02-08T04:22:34.022Z,928.52
2017-02-08T04:23:02.266Z,928.55
2017-02-08T04:23:30.503Z,928.56
2017-02-08T04:23:58.753Z,928.54
2017-02-08T04:24:26.931Z,928.59
2017-02-08T04:24:55.130Z,928.56
2017-02-08T04:25:23.354Z,928.55
2017-02-08T04:25:51.590Z,928.58
2017-02-08T04:26:19.804Z,928.59
2017-02-08T04:26:48.068Z,928.65
2017-02-08T04:27:16.303Z,928.6
2017-02-08T04:27:44.518Z,928.66
2017-02-08T04:28:12.784Z,928.63
2017-02-08T04:28:41.248Z,928.64
2017-02-08T04:29:09.517Z,928.65
2017-02-08T04:29:37.584Z,928.67
2017-02-08T04:30:05.877Z,928.67
2017-02-08T04:30:34.088Z,928.69
2017-02-08T04:31:02.213Z,928.69
2017-02-08T04:31:30.410Z,928.66
2017-02-08T04:31:58.537Z,928.67
2017-02-08T04:32:26.714Z,928.63
2017-02-08T04:32:54.847Z,928.62
2017-02-08T04:33:23.046Z,928.69
2017-02-08T04:33:51.521Z,928.61
2017-02-08T04:34:19.510Z,928.64
2017-02-08T04:34:47.686Z,928.6
2017-02-08T04:35:15.873Z,928.58
2017-02-08T04:35:44.016Z,928.56
2017-02-08T04:36:12.166Z,928.54
2017-02-08T04:36:40.428Z,928.49
2017-02-08T04:37:08.611Z,928.48
2017-02-08T04:37:36.728Z,928.52
2017-02-08T04:38:05.037Z,928.53
2017-02-08T04:38:33.211Z,928.49
2017-02-08T04:39:01.683Z,928.49
2017-02-08T04:39:29.829Z,928.48
2017-02-08T04:39:58.198Z,928.53
2017-02-08T04:40:26.483Z,928.51
2017-02-08T04:40:54.691Z,928.5
2017-02-08T04:41:22.911Z,928.47
2017-02-08T04:41:51.203Z,928.48
2017-02-08T04:42:19.451Z,928.5
2017-02-08T04:42:47.765Z,928.48
2017-02-08T04:43:16.005Z,928.5
2017-02-08T04:43:44.157Z,928.47
2017-02-08T04:44:12.496Z,928.49
2017-02-08T04:44:40.669Z,928.46
2017-02-08T04:45:08.986Z,928.46
2017-02-08T04:45:37.135Z,928.43
2017-02-08T04:46:05.204Z,928.46
2017-02-08T04:46:33.476Z,928.49
2017-02-08T04:47:01.717Z,928.47
2017-02-08T04:47:29.937Z,928.47
2017-02-08T04:47:58.198Z,928.48
2017-02-08T04:48:26.337Z,928.5
2017-02-08T04:48:54.527Z,928.48
2017-02-08T04:49:22.922Z,928.47
2017-02-08T04:49:51.008Z,928.48
2017-02-08T04:50:19.193Z,928.44
2017-02-08T04:50:47.322Z,928.47
2017-02-08T04:51:15.402Z,928.51
2017-02-08T04:51:43.661Z,928.43
2017-02-08T04:52:11.920Z,928.51
2017-02-08T04:52:39.991Z,928.45
2017-02-08T04:53:08.149Z,928.41
2017-02-08T04:53:36.407Z,928.44
2017-02-08T04:54:04.519Z,928.43
2017-02-08T04:54:32.663Z,928.4
2017-02-08T04:55:00.837Z,928.44
2017-02-08T04:55:29.120Z,928.39
2017-02-08T04:55:57.410Z,928.37
2017-02-08T04:56:25.495Z,928.39
2017-02-08T04:56:53.584Z,928.36
2017-02-08T04:57:21.889Z,928.35
2017-02-08T04:57:50.064Z,928.35
2017-02-08T04:58:18.244Z,928.33
2017-02-08T04:58:46.473Z,928.3
2017-02-08T04:59:14.631Z,928.31
2017-02-08T04:59:42.869Z,928.34
2017-02-08T05:00:11.191Z,928.34
2017-02-08T05:00:39.544Z,928.31
2017-02-08T05:01:07.832Z,928.31
2017-02-08T05:01:36.020Z,928.29
2017-02-08T05:02:04.209Z,928.29
2017-02-08T05:02:32.483Z,928.32
2017-02-08T05:03:00.766Z,928.3
2017-02-08T05:03:28.975Z,928.27
2017-02-08T05:03:57.277Z,928.27
2017-02-08T05:04:25.545Z,928.28
2017-02-08T05:04:53.714Z,928.28
2017-02-08T05:05:21.915Z,928.3
2017-02-08T05:05:50.174Z,928.26
2017-02-08T05:06:18.263Z,928.26
2017-02-08T05:06:46.457Z,928.25
2017-02-08T05:07:14.632Z,928.22
2017-02-08T05:07:42.883Z,928.25
2017-02-08T05:08:11.146Z,928.23
2017-02-08T05:08:39.410Z,928.23
2017-02-08T05:09:07.584Z,928.22
2017-02-08T05:09:35.848Z,928.21
2017-02-08T05:10:03.935Z,928.23
2017-02-08T05:10:32.246Z,928.18
2017-02-08T05:11:00.439Z,928.21
2017-02-08T05:11:28.538Z,928.16
2017-02-08T05:11:56.723Z,928.19
2017-02-08T05:12:24.991Z,928.21
2017-02-08T05:12:53.285Z,928.2
2017-02-08T05:13:21.496Z,928.22
2017-02-08T05:13:49.622Z,928.22
2017-02-08T05:14:17.971Z,928.22
2017-02-08T05:14:46.232Z,928.19
2017-02-08T05:15:14.333Z,928.14
2017-02-08T05:15:42.495Z,928.16
2017-02-08T05:16:10.682Z,928.17
2017-02-08T05:16:38.955Z,928.18
2017-02-08T05:17:07.247Z,928.16
2017-02-08T05:17:35.551Z,928.17
2017-02-08T05:18:03.861Z,928.15
2017-02-08T05:18:32.129Z,928.16
2017-02-08T05:19:00.277Z,928.16
2017-02-08T05:19:28.283Z,928.19
2017-02-08T05:19:56.537Z,928.17
2017-02-08T05:20:24.875Z,928.17
2017-02-08T05:20:53.159Z,928.2
2017-02-08T05:21:21.223Z,928.19
2017-02-08T05:21:49.296Z,928.18
2017-02-08T05:22:17.621Z,928.2
2017-02-08T05:22:45.873Z,928.18
2017-02-08T05:23:14.155Z,928.18
2017-02-08T05:23:42.362Z,928.18
2017-02-08T05:24:10.620Z,928.15
2017-02-08T05:24:39.028Z,928.17
2017-02-08T05:25:07.294Z,928.14
2017-02-08T05:25:35.621Z,928.16
2017-02-08T05:26:03.797Z,928.13
2017-02-08T05:26:31.990Z,928.16
2017-02-08T05:27:00.228Z,928.09
2017-02-08T05:27:28.091Z,928.14
2017-02-08T05:27:56.286Z,928.14
2017-02-08T05:28:24.502Z,928.1
2017-02-08T05:28:52.644Z,928.12
2017-02-08T05:29:21.098Z,928.1
2017-02-08T05:29:49.247Z,928.1
2017-02-08T05:30:17.437Z,928.13
2017-02-08T05:30:45.688Z,928.14
2017-02-08T05:31:13.958Z,928.11
2017-02-08T05:31:42.048Z,928.09
2017-02-08T05:32:10.334Z,928.12
2017-02-08T05:32:38.652Z,928.11
2017-02-08T05:33:06.783Z,928.12
2017-02-08T05:33:35.060Z,928.08
2017-02-08T05:34:03.314Z,928.04
2017-02-08T05:34:31.300Z,928.05
2017-02-08T05:34:59.475Z,928.03
2017-02-08T05:35:27.748Z,928.03
2017-02-08T05:35:55.882Z,927.99
2017-02-08T05:36:24.078Z,928
2017-02-08T05:36:52.199Z,927.95
2017-02-08T05:37:20.464Z,927.97
2017-02-08T05:37:48.629Z,927.96
2017-02-08T05:38:16.915Z,927.97
2017-02-08T05:38:44.986Z,928
2017-02-08T05:39:13.092Z,928
2017-02-08T05:39:41.701Z,927.97
2017-02-08T05:40:09.969Z,927.97
2017-02-08T05:40:38.227Z,927.95
2017-02-08T05:41:06.340Z,927.99
2017-02-08T05:41:34.502Z,927.93
2017-02-08T05:42:02.636Z,927.99
2017-02-08T05:42:30.960Z,927.98
2017-02-08T05:42:59.308Z,927.97
2017-02-08T05:43:27.469Z,927.99
2017-02-08T05:43:55.619Z,927.97
2017-02-08T05:44:23.899Z,927.98
2017-02-08T05:44:52.162Z,927.95
2017-02-08T05:45:20.406Z,927.97
2017-02-08T05:45:48.668Z,927.94
2017-02-08T05:46:16.865Z,928.03
2017-02-08T05:46:45.126Z,928
2017-02-08T05:47:13.217Z,928.01
2017-02-08T05:47:41.412Z,928.01
2017-02-08T05:48:09.609Z,928.06
2017-02-08T05:48:37.875Z,928.07
2017-02-08T05:49:06.125Z,928.07
2017-02-08T05:49:34.456Z,928.06
2017-02-08T05:50:02.530Z,928.09
2017-02-08T05:50:30.800Z,928.11
2017-02-08T05:50:59.003Z,928.09
2017-02-08T05:51:27.266Z,928.1
2017-02-08T05:51:55.571Z,928.12
2017-02-08T05:52:23.501Z,928.09
2017-02-08T05:52:51.807Z,928.12
2017-02-08T05:53:19.970Z,928.09